sensor_id;sensor_type;location;lat;lon;timestamp;temperature;humidity
49124;DHT22;48506;48.202;16.274;2024-01-30T00:02:12;3.40;98.20
49124;DHT22;48506;48.202;16.274;2024-01-30T00:04:38;3.40;98.30
49124;DHT22;48506;48.202;16.274;2024-01-30T00:07:04;3.40;98.30
49124;DHT22;48506;48.202;16.274;2024-01-30T00:09:30;3.40;98.40
49124;DHT22;48506;48.202;16.274;2024-01-30T00:11:56;3.40;98.30
49124;DHT22;48506;48.202;16.274;2024-01-30T00:14:22;3.40;98.40
49124;DHT22;48506;48.202;16.274;2024-01-30T00:16:48;3.40;98.40
49124;DHT22;48506;48.202;16.274;2024-01-30T00:19:14;3.40;98.40
49124;DHT22;48506;48.202;16.274;2024-01-30T00:21:40;3.40;98.40
49124;DHT22;48506;48.202;16.274;2024-01-30T00:24:07;3.30;98.40
49124;DHT22;48506;48.202;16.274;2024-01-30T00:26:33;3.30;98.40
49124;DHT22;48506;48.202;16.274;2024-01-30T00:28:58;3.30;98.40
49124;DHT22;48506;48.202;16.274;2024-01-30T00:31:24;3.40;98.30
49124;DHT22;48506;48.202;16.274;2024-01-30T00:33:50;3.40;98.40
49124;DHT22;48506;48.202;16.274;2024-01-30T00:36:16;3.30;98.40
49124;DHT22;48506;48.202;16.274;2024-01-30T00:38:42;3.30;98.40
49124;DHT22;48506;48.202;16.274;2024-01-30T00:41:09;3.30;98.40
49124;DHT22;48506;48.202;16.274;2024-01-30T00:43:35;3.30;98.40
49124;DHT22;48506;48.202;16.274;2024-01-30T00:46:02;3.30;98.40
49124;DHT22;48506;48.202;16.274;2024-01-30T00:48:29;3.30;98.40
49124;DHT22;48506;48.202;16.274;2024-01-30T00:50:55;3.30;98.40
49124;DHT22;48506;48.202;16.274;2024-01-30T00:53:21;3.30;98.50
49124;DHT22;48506;48.202;16.274;2024-01-30T00:55:46;3.20;98.50
49124;DHT22;48506;48.202;16.274;2024-01-30T00:58:12;3.20;98.40
49124;DHT22;48506;48.202;16.274;2024-01-30T01:00:39;3.20;98.40
49124;DHT22;48506;48.202;16.274;2024-01-30T01:03:05;3.20;98.50
49124;DHT22;48506;48.202;16.274;2024-01-30T01:05:31;3.20;98.60
49124;DHT22;48506;48.202;16.274;2024-01-30T01:07:57;3.10;98.60
49124;DHT22;48506;48.202;16.274;2024-01-30T01:10:23;3.20;98.60
49124;DHT22;48506;48.202;16.274;2024-01-30T01:12:49;3.10;98.60
49124;DHT22;48506;48.202;16.274;2024-01-30T01:15:15;3.10;98.70
49124;DHT22;48506;48.202;16.274;2024-01-30T01:17:41;3.10;98.70
49124;DHT22;48506;48.202;16.274;2024-01-30T01:20:08;3.10;98.70
49124;DHT22;48506;48.202;16.274;2024-01-30T01:22:34;3.10;98.80
49124;DHT22;48506;48.202;16.274;2024-01-30T01:25:01;3.00;98.90
49124;DHT22;48506;48.202;16.274;2024-01-30T01:27:27;3.10;98.90
49124;DHT22;48506;48.202;16.274;2024-01-30T01:29:53;3.10;98.90
49124;DHT22;48506;48.202;16.274;2024-01-30T01:32:19;3.10;98.90
49124;DHT22;48506;48.202;16.274;2024-01-30T01:34:45;3.00;99.00
49124;DHT22;48506;48.202;16.274;2024-01-30T01:37:11;3.00;99.00
49124;DHT22;48506;48.202;16.274;2024-01-30T01:39:37;3.00;99.00
49124;DHT22;48506;48.202;16.274;2024-01-30T01:42:03;3.00;98.90
49124;DHT22;48506;48.202;16.274;2024-01-30T01:44:29;3.00;98.90
49124;DHT22;48506;48.202;16.274;2024-01-30T01:46:57;2.90;99.00
49124;DHT22;48506;48.202;16.274;2024-01-30T01:49:27;3.00;99.00
49124;DHT22;48506;48.202;16.274;2024-01-30T01:51:55;2.90;99.10
49124;DHT22;48506;48.202;16.274;2024-01-30T01:54:25;2.90;99.20
49124;DHT22;48506;48.202;16.274;2024-01-30T01:56:52;2.90;99.30
49124;DHT22;48506;48.202;16.274;2024-01-30T01:59:20;2.90;99.30
49124;DHT22;48506;48.202;16.274;2024-01-30T02:01:47;2.90;99.30
49124;DHT22;48506;48.202;16.274;2024-01-30T02:04:17;2.90;99.30
49124;DHT22;48506;48.202;16.274;2024-01-30T02:06:43;2.90;99.30
49124;DHT22;48506;48.202;16.274;2024-01-30T02:09:10;2.90;99.40
49124;DHT22;48506;48.202;16.274;2024-01-30T02:11:36;2.80;99.40
49124;DHT22;48506;48.202;16.274;2024-01-30T02:14:05;2.90;99.40
49124;DHT22;48506;48.202;16.274;2024-01-30T02:16:31;2.90;99.50
49124;DHT22;48506;48.202;16.274;2024-01-30T02:18:57;2.90;99.60
49124;DHT22;48506;48.202;16.274;2024-01-30T02:21:23;2.80;99.60
49124;DHT22;48506;48.202;16.274;2024-01-30T02:23:51;2.90;99.60
49124;DHT22;48506;48.202;16.274;2024-01-30T02:26:18;2.90;99.60
49124;DHT22;48506;48.202;16.274;2024-01-30T02:28:44;2.80;99.50
49124;DHT22;48506;48.202;16.274;2024-01-30T02:31:10;2.80;99.60
49124;DHT22;48506;48.202;16.274;2024-01-30T02:33:36;2.90;99.60
49124;DHT22;48506;48.202;16.274;2024-01-30T02:36:02;2.80;99.70
49124;DHT22;48506;48.202;16.274;2024-01-30T02:38:28;2.80;99.70
49124;DHT22;48506;48.202;16.274;2024-01-30T02:40:54;2.80;99.70
49124;DHT22;48506;48.202;16.274;2024-01-30T02:43:23;2.80;99.70
49124;DHT22;48506;48.202;16.274;2024-01-30T02:45:49;2.80;99.70
49124;DHT22;48506;48.202;16.274;2024-01-30T02:48:15;2.80;99.80
49124;DHT22;48506;48.202;16.274;2024-01-30T02:50:40;2.80;99.70
49124;DHT22;48506;48.202;16.274;2024-01-30T02:53:06;2.80;99.80
49124;DHT22;48506;48.202;16.274;2024-01-30T02:55:33;2.80;99.80
49124;DHT22;48506;48.202;16.274;2024-01-30T02:57:59;2.80;99.70
49124;DHT22;48506;48.202;16.274;2024-01-30T03:00:25;2.80;99.80
49124;DHT22;48506;48.202;16.274;2024-01-30T03:02:51;2.80;99.80
49124;DHT22;48506;48.202;16.274;2024-01-30T03:05:17;2.80;99.80
49124;DHT22;48506;48.202;16.274;2024-01-30T03:07:43;2.80;99.80
49124;DHT22;48506;48.202;16.274;2024-01-30T03:10:09;2.80;99.80
49124;DHT22;48506;48.202;16.274;2024-01-30T03:12:35;2.80;99.80
49124;DHT22;48506;48.202;16.274;2024-01-30T03:15:01;2.80;99.80
49124;DHT22;48506;48.202;16.274;2024-01-30T03:17:27;2.80;99.80
49124;DHT22;48506;48.202;16.274;2024-01-30T03:19:53;2.70;99.90
49124;DHT22;48506;48.202;16.274;2024-01-30T03:22:19;2.70;99.90
49124;DHT22;48506;48.202;16.274;2024-01-30T03:24:45;2.80;99.80
49124;DHT22;48506;48.202;16.274;2024-01-30T03:27:10;2.80;99.80
49124;DHT22;48506;48.202;16.274;2024-01-30T03:29:37;2.70;99.90
49124;DHT22;48506;48.202;16.274;2024-01-30T03:32:03;2.70;99.90
49124;DHT22;48506;48.202;16.274;2024-01-30T03:34:29;2.70;99.80
49124;DHT22;48506;48.202;16.274;2024-01-30T03:36:55;2.70;99.80
49124;DHT22;48506;48.202;16.274;2024-01-30T03:39:23;2.70;99.80
49124;DHT22;48506;48.202;16.274;2024-01-30T03:41:48;2.70;99.70
49124;DHT22;48506;48.202;16.274;2024-01-30T03:44:14;2.70;99.80
49124;DHT22;48506;48.202;16.274;2024-01-30T03:46:40;2.70;99.80
49124;DHT22;48506;48.202;16.274;2024-01-30T03:49:06;2.70;99.80
49124;DHT22;48506;48.202;16.274;2024-01-30T03:51:32;2.70;99.80
49124;DHT22;48506;48.202;16.274;2024-01-30T03:53:57;2.70;99.70
49124;DHT22;48506;48.202;16.274;2024-01-30T03:56:23;2.70;99.70
49124;DHT22;48506;48.202;16.274;2024-01-30T03:58:51;2.60;99.80
49124;DHT22;48506;48.202;16.274;2024-01-30T04:01:17;2.60;99.80
49124;DHT22;48506;48.202;16.274;2024-01-30T04:03:43;2.60;99.80
49124;DHT22;48506;48.202;16.274;2024-01-30T04:06:10;2.60;99.80
49124;DHT22;48506;48.202;16.274;2024-01-30T04:08:36;2.60;99.80
49124;DHT22;48506;48.202;16.274;2024-01-30T04:11:06;2.60;99.80
49124;DHT22;48506;48.202;16.274;2024-01-30T04:13:33;2.60;99.80
49124;DHT22;48506;48.202;16.274;2024-01-30T04:16:00;2.60;99.80
49124;DHT22;48506;48.202;16.274;2024-01-30T04:18:29;2.50;99.80
49124;DHT22;48506;48.202;16.274;2024-01-30T04:20:55;2.50;99.80
49124;DHT22;48506;48.202;16.274;2024-01-30T04:23:21;2.50;99.80
49124;DHT22;48506;48.202;16.274;2024-01-30T04:25:47;2.50;99.80
49124;DHT22;48506;48.202;16.274;2024-01-30T04:28:13;2.50;99.80
49124;DHT22;48506;48.202;16.274;2024-01-30T04:30:39;2.50;99.80
49124;DHT22;48506;48.202;16.274;2024-01-30T04:33:05;2.40;99.90
49124;DHT22;48506;48.202;16.274;2024-01-30T04:35:31;2.40;99.90
49124;DHT22;48506;48.202;16.274;2024-01-30T04:37:57;2.40;99.90
49124;DHT22;48506;48.202;16.274;2024-01-30T04:40:23;2.40;99.90
49124;DHT22;48506;48.202;16.274;2024-01-30T04:42:49;2.40;99.90
49124;DHT22;48506;48.202;16.274;2024-01-30T04:45:15;2.40;99.90
49124;DHT22;48506;48.202;16.274;2024-01-30T04:47:41;2.40;99.90
49124;DHT22;48506;48.202;16.274;2024-01-30T04:50:07;2.30;99.90
49124;DHT22;48506;48.202;16.274;2024-01-30T04:52:34;2.30;99.90
49124;DHT22;48506;48.202;16.274;2024-01-30T04:55:01;2.30;99.90
49124;DHT22;48506;48.202;16.274;2024-01-30T04:57:27;2.30;99.90
49124;DHT22;48506;48.202;16.274;2024-01-30T04:59:53;2.30;99.90
49124;DHT22;48506;48.202;16.274;2024-01-30T05:02:19;2.30;99.90
49124;DHT22;48506;48.202;16.274;2024-01-30T05:04:44;2.30;99.90
49124;DHT22;48506;48.202;16.274;2024-01-30T05:07:10;2.20;99.90
49124;DHT22;48506;48.202;16.274;2024-01-30T05:09:36;2.20;99.90
49124;DHT22;48506;48.202;16.274;2024-01-30T05:12:02;2.20;99.90
49124;DHT22;48506;48.202;16.274;2024-01-30T05:14:28;2.20;99.90
49124;DHT22;48506;48.202;16.274;2024-01-30T05:16:54;2.20;99.90
49124;DHT22;48506;48.202;16.274;2024-01-30T05:19:20;2.20;99.90
49124;DHT22;48506;48.202;16.274;2024-01-30T05:21:47;2.10;99.90
49124;DHT22;48506;48.202;16.274;2024-01-30T05:24:12;2.10;99.90
49124;DHT22;48506;48.202;16.274;2024-01-30T05:26:38;2.10;99.90
49124;DHT22;48506;48.202;16.274;2024-01-30T05:29:06;2.10;99.90
49124;DHT22;48506;48.202;16.274;2024-01-30T05:31:32;2.10;99.90
49124;DHT22;48506;48.202;16.274;2024-01-30T05:33:58;2.00;99.90
49124;DHT22;48506;48.202;16.274;2024-01-30T05:36:24;2.00;99.90
49124;DHT22;48506;48.202;16.274;2024-01-30T05:38:50;2.00;99.90
49124;DHT22;48506;48.202;16.274;2024-01-30T05:41:16;2.00;99.90
49124;DHT22;48506;48.202;16.274;2024-01-30T05:43:42;2.00;99.90
49124;DHT22;48506;48.202;16.274;2024-01-30T05:46:08;2.00;99.90
49124;DHT22;48506;48.202;16.274;2024-01-30T05:48:34;2.00;99.90
49124;DHT22;48506;48.202;16.274;2024-01-30T05:51:01;2.00;99.90
49124;DHT22;48506;48.202;16.274;2024-01-30T05:53:28;2.00;99.90
49124;DHT22;48506;48.202;16.274;2024-01-30T05:55:54;2.00;99.90
49124;DHT22;48506;48.202;16.274;2024-01-30T05:58:20;2.00;99.90
49124;DHT22;48506;48.202;16.274;2024-01-30T06:00:45;2.00;99.90
49124;DHT22;48506;48.202;16.274;2024-01-30T06:03:11;1.90;99.90
49124;DHT22;48506;48.202;16.274;2024-01-30T06:05:37;1.90;99.90
49124;DHT22;48506;48.202;16.274;2024-01-30T06:08:04;1.90;99.90
49124;DHT22;48506;48.202;16.274;2024-01-30T06:10:30;1.90;99.90
49124;DHT22;48506;48.202;16.274;2024-01-30T06:12:55;1.90;99.90
49124;DHT22;48506;48.202;16.274;2024-01-30T06:15:21;1.90;99.90
49124;DHT22;48506;48.202;16.274;2024-01-30T06:17:47;1.90;99.90
49124;DHT22;48506;48.202;16.274;2024-01-30T06:20:13;1.90;99.90
49124;DHT22;48506;48.202;16.274;2024-01-30T06:22:39;1.90;99.90
49124;DHT22;48506;48.202;16.274;2024-01-30T06:25:05;1.90;99.90
49124;DHT22;48506;48.202;16.274;2024-01-30T06:27:30;1.90;99.90
49124;DHT22;48506;48.202;16.274;2024-01-30T06:29:56;1.90;99.90
49124;DHT22;48506;48.202;16.274;2024-01-30T06:32:22;1.90;99.90
49124;DHT22;48506;48.202;16.274;2024-01-30T06:34:48;1.90;99.90
49124;DHT22;48506;48.202;16.274;2024-01-30T06:37:14;1.90;99.90
49124;DHT22;48506;48.202;16.274;2024-01-30T06:39:40;1.90;99.90
49124;DHT22;48506;48.202;16.274;2024-01-30T06:42:06;1.90;99.90
49124;DHT22;48506;48.202;16.274;2024-01-30T06:44:32;2.00;99.90
49124;DHT22;48506;48.202;16.274;2024-01-30T06:46:57;2.00;99.90
49124;DHT22;48506;48.202;16.274;2024-01-30T06:49:23;2.00;99.90
49124;DHT22;48506;48.202;16.274;2024-01-30T06:51:49;2.00;99.90
49124;DHT22;48506;48.202;16.274;2024-01-30T06:54:15;2.00;99.90
49124;DHT22;48506;48.202;16.274;2024-01-30T06:56:41;2.00;99.90
49124;DHT22;48506;48.202;16.274;2024-01-30T06:59:06;2.00;99.90
49124;DHT22;48506;48.202;16.274;2024-01-30T07:01:34;2.10;99.90
49124;DHT22;48506;48.202;16.274;2024-01-30T07:04:00;2.10;99.90
49124;DHT22;48506;48.202;16.274;2024-01-30T07:06:26;2.10;99.90
49124;DHT22;48506;48.202;16.274;2024-01-30T07:08:51;2.10;99.90
49124;DHT22;48506;48.202;16.274;2024-01-30T07:11:22;2.20;99.90
49124;DHT22;48506;48.202;16.274;2024-01-30T07:13:50;2.20;99.90
49124;DHT22;48506;48.202;16.274;2024-01-30T07:16:17;2.30;99.90
49124;DHT22;48506;48.202;16.274;2024-01-30T07:18:44;2.30;99.90
49124;DHT22;48506;48.202;16.274;2024-01-30T07:21:09;2.40;99.90
49124;DHT22;48506;48.202;16.274;2024-01-30T07:23:36;2.40;99.90
49124;DHT22;48506;48.202;16.274;2024-01-30T07:26:08;2.50;99.90
49124;DHT22;48506;48.202;16.274;2024-01-30T07:28:35;2.60;99.90
49124;DHT22;48506;48.202;16.274;2024-01-30T07:31:01;2.60;99.90
49124;DHT22;48506;48.202;16.274;2024-01-30T07:33:27;2.70;99.90
49124;DHT22;48506;48.202;16.274;2024-01-30T07:35:53;2.80;99.90
49124;DHT22;48506;48.202;16.274;2024-01-30T07:38:19;2.90;99.90
49124;DHT22;48506;48.202;16.274;2024-01-30T07:40:46;2.90;99.70
49124;DHT22;48506;48.202;16.274;2024-01-30T07:43:12;3.00;99.60
49124;DHT22;48506;48.202;16.274;2024-01-30T07:45:38;3.10;99.50
49124;DHT22;48506;48.202;16.274;2024-01-30T07:48:07;3.20;99.50
49124;DHT22;48506;48.202;16.274;2024-01-30T07:50:33;3.30;99.50
49124;DHT22;48506;48.202;16.274;2024-01-30T07:53:00;3.40;99.30
49124;DHT22;48506;48.202;16.274;2024-01-30T07:56:02;3.50;99.00
49124;DHT22;48506;48.202;16.274;2024-01-30T07:58:28;3.60;98.70
49124;DHT22;48506;48.202;16.274;2024-01-30T08:00:54;3.60;98.50
49124;DHT22;48506;48.202;16.274;2024-01-30T08:03:22;3.70;98.50
49124;DHT22;48506;48.202;16.274;2024-01-30T08:05:48;3.80;98.40
49124;DHT22;48506;48.202;16.274;2024-01-30T08:08:14;3.90;98.10
49124;DHT22;48506;48.202;16.274;2024-01-30T08:10:40;4.00;98.10
49124;DHT22;48506;48.202;16.274;2024-01-30T08:13:05;4.20;98.00
49124;DHT22;48506;48.202;16.274;2024-01-30T08:15:32;4.30;97.90
49124;DHT22;48506;48.202;16.274;2024-01-30T08:17:57;4.40;97.70
49124;DHT22;48506;48.202;16.274;2024-01-30T08:20:25;4.50;97.20
49124;DHT22;48506;48.202;16.274;2024-01-30T08:22:51;4.50;97.10
49124;DHT22;48506;48.202;16.274;2024-01-30T08:25:17;4.50;96.90
49124;DHT22;48506;48.202;16.274;2024-01-30T08:27:43;4.60;97.00
49124;DHT22;48506;48.202;16.274;2024-01-30T08:30:09;4.70;96.70
49124;DHT22;48506;48.202;16.274;2024-01-30T08:32:35;4.80;96.60
49124;DHT22;48506;48.202;16.274;2024-01-30T08:35:01;4.90;96.60
49124;DHT22;48506;48.202;16.274;2024-01-30T08:37:30;5.00;96.20
49124;DHT22;48506;48.202;16.274;2024-01-30T08:39:56;5.10;96.10
49124;DHT22;48506;48.202;16.274;2024-01-30T08:42:22;5.20;95.80
49124;DHT22;48506;48.202;16.274;2024-01-30T08:44:49;5.20;95.90
49124;DHT22;48506;48.202;16.274;2024-01-30T08:47:16;5.30;95.80
49124;DHT22;48506;48.202;16.274;2024-01-30T08:49:44;5.50;95.60
49124;DHT22;48506;48.202;16.274;2024-01-30T08:52:11;5.60;95.60
49124;DHT22;48506;48.202;16.274;2024-01-30T08:54:37;5.80;95.50
49124;DHT22;48506;48.202;16.274;2024-01-30T08:57:03;5.90;95.20
49124;DHT22;48506;48.202;16.274;2024-01-30T08:59:30;6.00;94.90
49124;DHT22;48506;48.202;16.274;2024-01-30T09:01:55;6.20;94.80
49124;DHT22;48506;48.202;16.274;2024-01-30T09:04:24;6.20;94.30
49124;DHT22;48506;48.202;16.274;2024-01-30T09:06:50;6.30;94.50
49124;DHT22;48506;48.202;16.274;2024-01-30T09:09:16;6.40;94.00
49124;DHT22;48506;48.202;16.274;2024-01-30T09:11:43;6.50;93.80
49124;DHT22;48506;48.202;16.274;2024-01-30T09:14:09;6.60;93.60
49124;DHT22;48506;48.202;16.274;2024-01-30T09:16:35;6.60;93.40
49124;DHT22;48506;48.202;16.274;2024-01-30T09:19:01;6.70;93.40
49124;DHT22;48506;48.202;16.274;2024-01-30T09:21:27;6.80;93.50
49124;DHT22;48506;48.202;16.274;2024-01-30T09:24:02;6.90;93.40
49124;DHT22;48506;48.202;16.274;2024-01-30T09:26:29;6.90;93.20
49124;DHT22;48506;48.202;16.274;2024-01-30T09:28:55;7.00;93.00
49124;DHT22;48506;48.202;16.274;2024-01-30T09:31:21;7.00;92.80
49124;DHT22;48506;48.202;16.274;2024-01-30T09:33:46;7.10;92.70
49124;DHT22;48506;48.202;16.274;2024-01-30T09:36:13;7.10;92.60
49124;DHT22;48506;48.202;16.274;2024-01-30T09:38:44;7.20;92.50
49124;DHT22;48506;48.202;16.274;2024-01-30T09:41:10;7.30;92.60
49124;DHT22;48506;48.202;16.274;2024-01-30T09:43:39;7.30;92.50
49124;DHT22;48506;48.202;16.274;2024-01-30T09:46:06;7.40;92.40
49124;DHT22;48506;48.202;16.274;2024-01-30T09:48:37;7.50;92.20
49124;DHT22;48506;48.202;16.274;2024-01-30T09:51:03;7.60;91.90
49124;DHT22;48506;48.202;16.274;2024-01-30T09:53:29;7.70;91.60
49124;DHT22;48506;48.202;16.274;2024-01-30T09:55:55;7.70;91.50
49124;DHT22;48506;48.202;16.274;2024-01-30T09:58:22;7.70;91.40
49124;DHT22;48506;48.202;16.274;2024-01-30T10:00:48;7.70;91.10
49124;DHT22;48506;48.202;16.274;2024-01-30T10:03:14;7.80;91.40
49124;DHT22;48506;48.202;16.274;2024-01-30T10:05:40;7.90;91.30
49124;DHT22;48506;48.202;16.274;2024-01-30T10:08:07;8.00;91.00
49124;DHT22;48506;48.202;16.274;2024-01-30T10:10:35;8.10;91.00
49124;DHT22;48506;48.202;16.274;2024-01-30T10:13:02;8.30;90.80
49124;DHT22;48506;48.202;16.274;2024-01-30T10:15:28;8.30;90.50
49124;DHT22;48506;48.202;16.274;2024-01-30T10:17:54;8.40;90.30
49124;DHT22;48506;48.202;16.274;2024-01-30T10:20:20;8.40;90.40
49124;DHT22;48506;48.202;16.274;2024-01-30T10:22:48;8.60;90.10
49124;DHT22;48506;48.202;16.274;2024-01-30T10:25:15;8.70;90.10
49124;DHT22;48506;48.202;16.274;2024-01-30T10:27:42;8.80;89.80
49124;DHT22;48506;48.202;16.274;2024-01-30T10:30:08;8.80;89.80
49124;DHT22;48506;48.202;16.274;2024-01-30T10:32:35;8.90;89.60
49124;DHT22;48506;48.202;16.274;2024-01-30T10:35:01;9.10;88.50
49124;DHT22;48506;48.202;16.274;2024-01-30T10:37:29;9.20;89.10
49124;DHT22;48506;48.202;16.274;2024-01-30T10:39:57;9.30;88.30
49124;DHT22;48506;48.202;16.274;2024-01-30T10:42:26;9.50;87.80
49124;DHT22;48506;48.202;16.274;2024-01-30T10:45:08;9.50;87.10
49124;DHT22;48506;48.202;16.274;2024-01-30T10:47:35;9.60;86.90
49124;DHT22;48506;48.202;16.274;2024-01-30T10:50:02;9.70;86.60
49124;DHT22;48506;48.202;16.274;2024-01-30T10:52:32;9.90;86.30
49124;DHT22;48506;48.202;16.274;2024-01-30T10:54:59;10.00;85.80
49124;DHT22;48506;48.202;16.274;2024-01-30T10:57:26;10.00;85.80
49124;DHT22;48506;48.202;16.274;2024-01-30T10:59:57;10.10;85.30
49124;DHT22;48506;48.202;16.274;2024-01-30T11:02:24;10.10;85.10
49124;DHT22;48506;48.202;16.274;2024-01-30T11:04:58;10.20;85.30
49124;DHT22;48506;48.202;16.274;2024-01-30T11:07:26;10.30;85.50
49124;DHT22;48506;48.202;16.274;2024-01-30T11:09:59;10.50;85.10
49124;DHT22;48506;48.202;16.274;2024-01-30T11:12:31;10.70;84.40
49124;DHT22;48506;48.202;16.274;2024-01-30T11:20:29;11.10;83.00
49124;DHT22;48506;48.202;16.274;2024-01-30T11:23:00;11.30;82.50
49124;DHT22;48506;48.202;16.274;2024-01-30T11:25:32;11.50;81.70
49124;DHT22;48506;48.202;16.274;2024-01-30T11:27:58;11.60;81.80
49124;DHT22;48506;48.202;16.274;2024-01-30T11:30:28;11.70;82.00
49124;DHT22;48506;48.202;16.274;2024-01-30T11:35:25;11.80;80.30
49124;DHT22;48506;48.202;16.274;2024-01-30T11:37:52;11.80;79.30
49124;DHT22;48506;48.202;16.274;2024-01-30T11:40:19;11.90;79.40
49124;DHT22;48506;48.202;16.274;2024-01-30T11:42:46;11.90;79.10
49124;DHT22;48506;48.202;16.274;2024-01-30T11:45:13;11.90;78.70
49124;DHT22;48506;48.202;16.274;2024-01-30T11:47:39;11.80;79.00
49124;DHT22;48506;48.202;16.274;2024-01-30T11:50:05;11.90;79.50
49124;DHT22;48506;48.202;16.274;2024-01-30T11:52:34;11.90;79.20
49124;DHT22;48506;48.202;16.274;2024-01-30T11:55:00;12.00;78.90
49124;DHT22;48506;48.202;16.274;2024-01-30T11:57:29;12.00;79.00
49124;DHT22;48506;48.202;16.274;2024-01-30T11:59:55;12.10;78.40
49124;DHT22;48506;48.202;16.274;2024-01-30T12:02:21;12.20;78.20
49124;DHT22;48506;48.202;16.274;2024-01-30T12:04:47;12.30;78.00
49124;DHT22;48506;48.202;16.274;2024-01-30T12:07:13;12.40;77.60
49124;DHT22;48506;48.202;16.274;2024-01-30T12:09:42;12.60;77.20
49124;DHT22;48506;48.202;16.274;2024-01-30T12:12:08;12.70;76.60
49124;DHT22;48506;48.202;16.274;2024-01-30T12:14:40;12.80;75.90
49124;DHT22;48506;48.202;16.274;2024-01-30T12:17:08;12.80;76.30
49124;DHT22;48506;48.202;16.274;2024-01-30T12:19:35;13.00;75.20
49124;DHT22;48506;48.202;16.274;2024-01-30T12:22:00;13.20;75.50
49124;DHT22;48506;48.202;16.274;2024-01-30T12:24:29;13.40;74.80
49124;DHT22;48506;48.202;16.274;2024-01-30T12:26:59;13.60;74.40
49124;DHT22;48506;48.202;16.274;2024-01-30T12:29:26;13.70;73.70
49124;DHT22;48506;48.202;16.274;2024-01-30T12:31:54;13.70;72.80
49124;DHT22;48506;48.202;16.274;2024-01-30T12:34:20;13.70;73.20
49124;DHT22;48506;48.202;16.274;2024-01-30T12:36:50;13.90;73.40
49124;DHT22;48506;48.202;16.274;2024-01-30T12:39:16;14.00;72.60
49124;DHT22;48506;48.202;16.274;2024-01-30T12:41:42;14.20;72.70
49124;DHT22;48506;48.202;16.274;2024-01-30T12:44:08;14.20;72.20
49124;DHT22;48506;48.202;16.274;2024-01-30T12:46:37;14.20;72.30
49124;DHT22;48506;48.202;16.274;2024-01-30T12:49:03;14.20;72.50
49124;DHT22;48506;48.202;16.274;2024-01-30T12:51:29;14.40;72.20
49124;DHT22;48506;48.202;16.274;2024-01-30T12:53:54;14.50;71.70
49124;DHT22;48506;48.202;16.274;2024-01-30T12:56:20;14.50;70.80
49124;DHT22;48506;48.202;16.274;2024-01-30T12:58:46;14.40;71.10
49124;DHT22;48506;48.202;16.274;2024-01-30T13:01:12;14.50;71.50
49124;DHT22;48506;48.202;16.274;2024-01-30T13:03:38;14.70;70.90
49124;DHT22;48506;48.202;16.274;2024-01-30T13:06:04;14.80;70.50
49124;DHT22;48506;48.202;16.274;2024-01-30T13:08:30;15.00;69.50
49124;DHT22;48506;48.202;16.274;2024-01-30T13:10:56;15.20;68.80
49124;DHT22;48506;48.202;16.274;2024-01-30T13:13:22;15.40;68.90
49124;DHT22;48506;48.202;16.274;2024-01-30T13:15:48;15.40;68.10
49124;DHT22;48506;48.202;16.274;2024-01-30T13:18:14;15.50;68.20
49124;DHT22;48506;48.202;16.274;2024-01-30T13:20:40;15.60;68.20
49124;DHT22;48506;48.202;16.274;2024-01-30T13:23:06;15.80;67.70
49124;DHT22;48506;48.202;16.274;2024-01-30T13:25:32;16.40;67.10
49124;DHT22;48506;48.202;16.274;2024-01-30T13:27:57;16.80;66.30
49124;DHT22;48506;48.202;16.274;2024-01-30T13:30:23;17.30;65.40
49124;DHT22;48506;48.202;16.274;2024-01-30T13:32:49;17.40;64.80
49124;DHT22;48506;48.202;16.274;2024-01-30T13:35:15;17.40;63.70
49124;DHT22;48506;48.202;16.274;2024-01-30T13:37:42;17.70;63.10
49124;DHT22;48506;48.202;16.274;2024-01-30T13:40:09;18.40;61.40
49124;DHT22;48506;48.202;16.274;2024-01-30T13:42:37;19.10;59.30
49124;DHT22;48506;48.202;16.274;2024-01-30T13:45:04;19.70;58.30
49124;DHT22;48506;48.202;16.274;2024-01-30T13:47:30;20.10;57.20
49124;DHT22;48506;48.202;16.274;2024-01-30T13:49:56;20.60;56.20
49124;DHT22;48506;48.202;16.274;2024-01-30T13:52:23;21.20;54.70
49124;DHT22;48506;48.202;16.274;2024-01-30T13:54:48;21.50;53.60
49124;DHT22;48506;48.202;16.274;2024-01-30T13:57:14;21.50;52.60
49124;DHT22;48506;48.202;16.274;2024-01-30T13:59:40;21.40;52.40
49124;DHT22;48506;48.202;16.274;2024-01-30T14:02:06;21.20;52.70
49124;DHT22;48506;48.202;16.274;2024-01-30T14:04:33;20.70;53.30
49124;DHT22;48506;48.202;16.274;2024-01-30T14:06:59;20.30;53.80
49124;DHT22;48506;48.202;16.274;2024-01-30T14:09:25;19.60;54.50
49124;DHT22;48506;48.202;16.274;2024-01-30T14:11:51;19.10;55.80
49124;DHT22;48506;48.202;16.274;2024-01-30T14:14:17;18.80;56.20
49124;DHT22;48506;48.202;16.274;2024-01-30T14:16:43;18.80;56.20
49124;DHT22;48506;48.202;16.274;2024-01-30T14:19:08;18.90;55.60
49124;DHT22;48506;48.202;16.274;2024-01-30T14:21:34;19.10;55.30
49124;DHT22;48506;48.202;16.274;2024-01-30T14:24:00;19.50;54.60
49124;DHT22;48506;48.202;16.274;2024-01-30T14:26:26;20.20;54.00
49124;DHT22;48506;48.202;16.274;2024-01-30T14:28:52;20.60;52.80
49124;DHT22;48506;48.202;16.274;2024-01-30T14:31:18;20.80;51.70
49124;DHT22;48506;48.202;16.274;2024-01-30T14:33:45;20.10;51.80
49124;DHT22;48506;48.202;16.274;2024-01-30T14:36:11;18.80;53.10
49124;DHT22;48506;48.202;16.274;2024-01-30T14:38:37;17.80;54.60
49124;DHT22;48506;48.202;16.274;2024-01-30T14:41:03;17.30;56.60
49124;DHT22;48506;48.202;16.274;2024-01-30T14:43:30;17.80;56.60
49124;DHT22;48506;48.202;16.274;2024-01-30T14:45:56;18.10;55.10
49124;DHT22;48506;48.202;16.274;2024-01-30T14:48:21;18.00;55.40
49124;DHT22;48506;48.202;16.274;2024-01-30T14:50:48;17.40;56.20
49124;DHT22;48506;48.202;16.274;2024-01-30T14:53:13;17.00;56.80
49124;DHT22;48506;48.202;16.274;2024-01-30T14:55:39;16.60;57.30
49124;DHT22;48506;48.202;16.274;2024-01-30T14:58:05;16.30;58.00
49124;DHT22;48506;48.202;16.274;2024-01-30T15:00:33;16.40;58.40
49124;DHT22;48506;48.202;16.274;2024-01-30T15:02:59;16.60;58.10
49124;DHT22;48506;48.202;16.274;2024-01-30T15:05:25;16.30;58.00
49124;DHT22;48506;48.202;16.274;2024-01-30T15:07:51;15.50;59.20
49124;DHT22;48506;48.202;16.274;2024-01-30T15:10:17;15.30;60.10
49124;DHT22;48506;48.202;16.274;2024-01-30T15:12:43;15.10;60.70
49124;DHT22;48506;48.202;16.274;2024-01-30T15:15:09;15.20;60.70
49124;DHT22;48506;48.202;16.274;2024-01-30T15:17:35;14.90;60.70
49124;DHT22;48506;48.202;16.274;2024-01-30T15:20:01;14.40;61.50
49124;DHT22;48506;48.202;16.274;2024-01-30T15:22:27;13.60;62.20
49124;DHT22;48506;48.202;16.274;2024-01-30T15:24:52;12.80;63.80
49124;DHT22;48506;48.202;16.274;2024-01-30T15:27:18;12.00;65.30
49124;DHT22;48506;48.202;16.274;2024-01-30T15:29:45;11.30;66.90
49124;DHT22;48506;48.202;16.274;2024-01-30T15:32:11;10.90;68.30